sensor_id;sensor_type;location;lat;lon;timestamp;P1;durP1;ratioP1;P2;durP2;ratioP2
69937;SDS011;57248;47.320;15.998;2024-01-06T00:00:50;3.97;;;1.15;;
69937;SDS011;57248;47.320;15.998;2024-01-06T00:03:22;4.00;;;1.35;;
69937;SDS011;57248;47.320;15.998;2024-01-06T00:05:55;5.65;;;1.45;;
69937;SDS011;57248;47.320;15.998;2024-01-06T00:08:21;4.07;;;1.38;;
69937;SDS011;57248;47.320;15.998;2024-01-06T00:10:53;2.97;;;1.07;;
69937;SDS011;57248;47.320;15.998;2024-01-06T00:13:27;4.25;;;1.73;;
69937;SDS011;57248;47.320;15.998;2024-01-06T00:16:00;1.75;;;0.95;;
69937;SDS011;57248;47.320;15.998;2024-01-06T00:18:32;2.78;;;1.50;;
69937;SDS011;57248;47.320;15.998;2024-01-06T00:21:05;4.68;;;1.13;;
69937;SDS011;57248;47.320;15.998;2024-01-06T00:23:37;4.83;;;1.80;;
69937;SDS011;57248;47.320;15.998;2024-01-06T00:26:10;3.30;;;0.52;;
69937;SDS011;57248;47.320;15.998;2024-01-06T00:28:37;2.97;;;0.83;;
69937;SDS011;57248;47.320;15.998;2024-01-06T00:31:10;3.42;;;1.30;;
69937;SDS011;57248;47.320;15.998;2024-01-06T00:33:42;6.90;;;1.20;;
69937;SDS011;57248;47.320;15.998;2024-01-06T00:36:14;2.58;;;0.88;;
69937;SDS011;57248;47.320;15.998;2024-01-06T00:38:40;2.25;;;0.50;;
69937;SDS011;57248;47.320;15.998;2024-01-06T00:41:13;1.70;;;0.63;;
69937;SDS011;57248;47.320;15.998;2024-01-06T00:43:38;2.70;;;0.98;;
69937;SDS011;57248;47.320;15.998;2024-01-06T00:46:10;2.20;;;0.90;;
69937;SDS011;57248;47.320;15.998;2024-01-06T00:48:42;2.88;;;1.08;;
69937;SDS011;57248;47.320;15.998;2024-01-06T00:51:15;4.63;;;1.33;;
69937;SDS011;57248;47.320;15.998;2024-01-06T00:53:47;3.70;;;1.23;;
69937;SDS011;57248;47.320;15.998;2024-01-06T00:56:26;2.85;;;1.05;;
69937;SDS011;57248;47.320;15.998;2024-01-06T00:59:05;2.17;;;0.82;;
69937;SDS011;57248;47.320;15.998;2024-01-06T01:01:31;5.33;;;1.73;;
69937;SDS011;57248;47.320;15.998;2024-01-06T01:04:03;5.82;;;1.38;;
69937;SDS011;57248;47.320;15.998;2024-01-06T01:06:36;4.30;;;0.80;;
69937;SDS011;57248;47.320;15.998;2024-01-06T01:09:09;2.45;;;0.65;;
69937;SDS011;57248;47.320;15.998;2024-01-06T01:11:42;2.20;;;0.90;;
69937;SDS011;57248;47.320;15.998;2024-01-06T01:14:15;5.10;;;1.47;;
69937;SDS011;57248;47.320;15.998;2024-01-06T01:16:50;5.75;;;1.50;;
69937;SDS011;57248;47.320;15.998;2024-01-06T01:19:16;3.87;;;1.10;;
69937;SDS011;57248;47.320;15.998;2024-01-06T01:21:48;3.70;;;1.13;;
69937;SDS011;57248;47.320;15.998;2024-01-06T01:24:20;10.23;;;1.90;;
69937;SDS011;57248;47.320;15.998;2024-01-06T01:26:46;3.83;;;1.05;;
69937;SDS011;57248;47.320;15.998;2024-01-06T01:29:18;2.08;;;0.98;;
69937;SDS011;57248;47.320;15.998;2024-01-06T01:31:51;5.30;;;1.02;;
69937;SDS011;57248;47.320;15.998;2024-01-06T01:34:23;2.47;;;0.63;;
69937;SDS011;57248;47.320;15.998;2024-01-06T01:36:55;9.15;;;2.08;;
69937;SDS011;57248;47.320;15.998;2024-01-06T01:39:27;2.58;;;0.98;;
69937;SDS011;57248;47.320;15.998;2024-01-06T01:41:59;2.55;;;0.75;;
69937;SDS011;57248;47.320;15.998;2024-01-06T01:44:24;5.33;;;0.97;;
69937;SDS011;57248;47.320;15.998;2024-01-06T01:46:57;4.75;;;1.30;;
69937;SDS011;57248;47.320;15.998;2024-01-06T01:49:30;2.47;;;0.75;;
69937;SDS011;57248;47.320;15.998;2024-01-06T01:52:04;4.30;;;0.87;;
69937;SDS011;57248;47.320;15.998;2024-01-06T01:54:31;3.70;;;0.73;;
69937;SDS011;57248;47.320;15.998;2024-01-06T01:57:10;1.42;;;0.52;;
69937;SDS011;57248;47.320;15.998;2024-01-06T01:59:44;3.25;;;1.05;;
69937;SDS011;57248;47.320;15.998;2024-01-06T02:02:17;3.97;;;0.95;;
69937;SDS011;57248;47.320;15.998;2024-01-06T02:04:50;3.33;;;1.20;;
69937;SDS011;57248;47.320;15.998;2024-01-06T02:07:22;9.80;;;1.35;;
69937;SDS011;57248;47.320;15.998;2024-01-06T02:09:54;4.32;;;1.15;;
69937;SDS011;57248;47.320;15.998;2024-01-06T02:12:26;2.72;;;0.95;;
69937;SDS011;57248;47.320;15.998;2024-01-06T02:14:51;3.27;;;1.17;;
69937;SDS011;57248;47.320;15.998;2024-01-06T02:17:23;9.57;;;0.98;;
69937;SDS011;57248;47.320;15.998;2024-01-06T02:19:56;3.20;;;0.80;;
69937;SDS011;57248;47.320;15.998;2024-01-06T02:22:21;2.50;;;0.90;;
69937;SDS011;57248;47.320;15.998;2024-01-06T02:24:54;3.00;;;0.93;;
69937;SDS011;57248;47.320;15.998;2024-01-06T02:27:26;2.47;;;0.67;;
69937;SDS011;57248;47.320;15.998;2024-01-06T02:29:58;2.75;;;0.75;;
69937;SDS011;57248;47.320;15.998;2024-01-06T02:32:30;2.35;;;0.52;;
69937;SDS011;57248;47.320;15.998;2024-01-06T02:35:02;3.38;;;1.02;;
69937;SDS011;57248;47.320;15.998;2024-01-06T02:37:34;2.15;;;0.60;;
69937;SDS011;57248;47.320;15.998;2024-01-06T02:40:07;4.00;;;1.50;;
69937;SDS011;57248;47.320;15.998;2024-01-06T02:42:40;4.15;;;1.05;;
69937;SDS011;57248;47.320;15.998;2024-01-06T02:45:12;6.68;;;1.08;;
69937;SDS011;57248;47.320;15.998;2024-01-06T02:47:44;3.03;;;0.85;;
69937;SDS011;57248;47.320;15.998;2024-01-06T02:50:17;4.20;;;1.25;;
69937;SDS011;57248;47.320;15.998;2024-01-06T02:52:46;3.57;;;1.13;;
69937;SDS011;57248;47.320;15.998;2024-01-06T02:55:18;4.22;;;1.23;;
69937;SDS011;57248;47.320;15.998;2024-01-06T02:58:04;2.63;;;0.60;;
69937;SDS011;57248;47.320;15.998;2024-01-06T03:00:43;3.97;;;1.23;;
69937;SDS011;57248;47.320;15.998;2024-01-06T03:03:15;2.85;;;0.70;;
69937;SDS011;57248;47.320;15.998;2024-01-06T03:05:47;2.50;;;0.53;;
69937;SDS011;57248;47.320;15.998;2024-01-06T03:08:14;3.70;;;1.17;;
69937;SDS011;57248;47.320;15.998;2024-01-06T03:10:47;3.67;;;1.05;;
69937;SDS011;57248;47.320;15.998;2024-01-06T03:13:19;5.03;;;0.88;;
69937;SDS011;57248;47.320;15.998;2024-01-06T03:15:51;3.10;;;0.90;;
69937;SDS011;57248;47.320;15.998;2024-01-06T03:18:16;4.97;;;1.10;;
69937;SDS011;57248;47.320;15.998;2024-01-06T03:20:49;2.25;;;0.50;;
69937;SDS011;57248;47.320;15.998;2024-01-06T03:23:21;1.73;;;0.50;;
69937;SDS011;57248;47.320;15.998;2024-01-06T03:25:53;4.28;;;0.90;;
69937;SDS011;57248;47.320;15.998;2024-01-06T03:28:18;2.93;;;0.77;;
69937;SDS011;57248;47.320;15.998;2024-01-06T03:30:50;4.90;;;1.35;;
69937;SDS011;57248;47.320;15.998;2024-01-06T03:33:22;4.68;;;0.70;;
69937;SDS011;57248;47.320;15.998;2024-01-06T03:35:54;2.63;;;1.00;;
69937;SDS011;57248;47.320;15.998;2024-01-06T03:38:26;3.92;;;1.10;;
69937;SDS011;57248;47.320;15.998;2024-01-06T03:40:58;3.33;;;0.60;;
69937;SDS011;57248;47.320;15.998;2024-01-06T03:43:30;2.70;;;0.63;;
69937;SDS011;57248;47.320;15.998;2024-01-06T03:46:02;6.95;;;1.00;;
69937;SDS011;57248;47.320;15.998;2024-01-06T03:48:35;3.17;;;0.60;;
69937;SDS011;57248;47.320;15.998;2024-01-06T03:51:02;5.87;;;1.10;;
69937;SDS011;57248;47.320;15.998;2024-01-06T03:53:35;2.90;;;0.98;;
69937;SDS011;57248;47.320;15.998;2024-01-06T03:56:07;2.85;;;0.82;;
69937;SDS011;57248;47.320;15.998;2024-01-06T03:58:39;5.30;;;1.30;;
69937;SDS011;57248;47.320;15.998;2024-01-06T04:01:11;2.45;;;0.80;;
69937;SDS011;57248;47.320;15.998;2024-01-06T04:03:43;5.07;;;0.97;;
69937;SDS011;57248;47.320;15.998;2024-01-06T04:06:15;1.60;;;0.50;;
69937;SDS011;57248;47.320;15.998;2024-01-06T04:08:47;2.25;;;0.50;;
69937;SDS011;57248;47.320;15.998;2024-01-06T04:11:12;3.03;;;0.53;;
69937;SDS011;57248;47.320;15.998;2024-01-06T04:13:51;2.13;;;0.60;;
69937;SDS011;57248;47.320;15.998;2024-01-06T04:16:23;4.68;;;0.77;;
69937;SDS011;57248;47.320;15.998;2024-01-06T04:18:57;1.60;;;0.35;;
69937;SDS011;57248;47.320;15.998;2024-01-06T04:21:22;3.53;;;0.73;;
69937;SDS011;57248;47.320;15.998;2024-01-06T04:23:54;6.88;;;0.65;;
69937;SDS011;57248;47.320;15.998;2024-01-06T04:26:27;2.15;;;0.50;;
69937;SDS011;57248;47.320;15.998;2024-01-06T04:28:59;1.93;;;0.30;;
69937;SDS011;57248;47.320;15.998;2024-01-06T04:31:31;2.28;;;0.40;;
69937;SDS011;57248;47.320;15.998;2024-01-06T04:34:03;1.50;;;0.38;;
69937;SDS011;57248;47.320;15.998;2024-01-06T04:36:35;2.08;;;0.50;;
69937;SDS011;57248;47.320;15.998;2024-01-06T04:39:07;2.58;;;0.80;;
69937;SDS011;57248;47.320;15.998;2024-01-06T04:41:41;2.93;;;1.07;;
69937;SDS011;57248;47.320;15.998;2024-01-06T04:44:13;2.72;;;0.95;;
69937;SDS011;57248;47.320;15.998;2024-01-06T04:46:38;2.87;;;0.73;;
69937;SDS011;57248;47.320;15.998;2024-01-06T04:49:10;2.08;;;0.40;;
69937;SDS011;57248;47.320;15.998;2024-01-06T04:51:35;2.93;;;0.40;;
69937;SDS011;57248;47.320;15.998;2024-01-06T04:54:07;1.85;;;0.50;;
69937;SDS011;57248;47.320;15.998;2024-01-06T04:56:46;2.50;;;0.40;;
69937;SDS011;57248;47.320;15.998;2024-01-06T04:59:18;5.60;;;0.32;;
69937;SDS011;57248;47.320;15.998;2024-01-06T05:01:50;4.10;;;0.73;;
69937;SDS011;57248;47.320;15.998;2024-01-06T05:04:23;2.40;;;0.70;;
69937;SDS011;57248;47.320;15.998;2024-01-06T05:06:55;3.70;;;0.82;;
69937;SDS011;57248;47.320;15.998;2024-01-06T05:09:20;2.63;;;0.73;;
69937;SDS011;57248;47.320;15.998;2024-01-06T05:11:53;2.20;;;1.08;;
69937;SDS011;57248;47.320;15.998;2024-01-06T05:14:25;3.53;;;0.55;;
69937;SDS011;57248;47.320;15.998;2024-01-06T05:16:58;1.60;;;0.30;;
69937;SDS011;57248;47.320;15.998;2024-01-06T05:19:30;3.30;;;0.63;;
69937;SDS011;57248;47.320;15.998;2024-01-06T05:22:03;1.60;;;0.47;;
69937;SDS011;57248;47.320;15.998;2024-01-06T05:24:35;1.65;;;0.40;;
69937;SDS011;57248;47.320;15.998;2024-01-06T05:27:08;2.78;;;0.43;;
69937;SDS011;57248;47.320;15.998;2024-01-06T05:29:40;1.73;;;0.50;;
69937;SDS011;57248;47.320;15.998;2024-01-06T05:32:12;3.88;;;0.75;;
69937;SDS011;57248;47.320;15.998;2024-01-06T05:34:44;3.43;;;0.50;;
69937;SDS011;57248;47.320;15.998;2024-01-06T05:37:16;1.73;;;0.35;;
69937;SDS011;57248;47.320;15.998;2024-01-06T05:39:48;2.50;;;0.40;;
69937;SDS011;57248;47.320;15.998;2024-01-06T05:42:20;2.00;;;0.20;;
69937;SDS011;57248;47.320;15.998;2024-01-06T05:44:52;3.95;;;0.45;;
69937;SDS011;57248;47.320;15.998;2024-01-06T05:47:24;1.17;;;0.27;;
69937;SDS011;57248;47.320;15.998;2024-01-06T05:49:49;1.50;;;0.60;;
69937;SDS011;57248;47.320;15.998;2024-01-06T05:52:21;5.50;;;0.60;;
69937;SDS011;57248;47.320;15.998;2024-01-06T05:54:53;3.50;;;0.55;;
69937;SDS011;57248;47.320;15.998;2024-01-06T05:57:25;2.83;;;0.40;;
69937;SDS011;57248;47.320;15.998;2024-01-06T06:00:08;1.23;;;0.30;;
69937;SDS011;57248;47.320;15.998;2024-01-06T06:02:40;6.05;;;1.02;;
69937;SDS011;57248;47.320;15.998;2024-01-06T06:05:06;1.73;;;0.70;;
69937;SDS011;57248;47.320;15.998;2024-01-06T06:07:40;3.67;;;0.50;;
69937;SDS011;57248;47.320;15.998;2024-01-06T06:10:12;3.17;;;0.43;;
69937;SDS011;57248;47.320;15.998;2024-01-06T06:12:44;2.80;;;0.50;;
69937;SDS011;57248;47.320;15.998;2024-01-06T06:15:16;2.30;;;0.35;;
69937;SDS011;57248;47.320;15.998;2024-01-06T06:17:42;2.40;;;0.50;;
69937;SDS011;57248;47.320;15.998;2024-01-06T06:20:14;6.37;;;0.70;;
69937;SDS011;57248;47.320;15.998;2024-01-06T06:22:46;2.63;;;0.47;;
69937;SDS011;57248;47.320;15.998;2024-01-06T06:25:18;2.75;;;0.60;;
69937;SDS011;57248;47.320;15.998;2024-01-06T06:27:50;1.45;;;0.45;;
69937;SDS011;57248;47.320;15.998;2024-01-06T06:30:22;2.13;;;0.40;;
69937;SDS011;57248;47.320;15.998;2024-01-06T06:32:54;3.83;;;0.70;;
69937;SDS011;57248;47.320;15.998;2024-01-06T06:35:26;2.85;;;0.85;;
69937;SDS011;57248;47.320;15.998;2024-01-06T06:37:58;2.55;;;0.57;;
69937;SDS011;57248;47.320;15.998;2024-01-06T06:40:23;3.10;;;0.77;;
69937;SDS011;57248;47.320;15.998;2024-01-06T06:42:55;2.95;;;0.77;;
69937;SDS011;57248;47.320;15.998;2024-01-06T06:45:27;8.77;;;1.25;;
69937;SDS011;57248;47.320;15.998;2024-01-06T06:47:59;2.42;;;0.80;;
69937;SDS011;57248;47.320;15.998;2024-01-06T06:50:32;3.90;;;0.80;;
69937;SDS011;57248;47.320;15.998;2024-01-06T06:53:04;2.85;;;0.73;;
69937;SDS011;57248;47.320;15.998;2024-01-06T06:55:36;4.20;;;1.33;;
69937;SDS011;57248;47.320;15.998;2024-01-06T06:58:16;2.10;;;0.73;;
69937;SDS011;57248;47.320;15.998;2024-01-06T07:00:48;5.68;;;0.90;;
69937;SDS011;57248;47.320;15.998;2024-01-06T07:03:20;3.17;;;0.93;;
69937;SDS011;57248;47.320;15.998;2024-01-06T07:05:52;4.68;;;1.08;;
69937;SDS011;57248;47.320;15.998;2024-01-06T07:08:17;4.70;;;1.17;;
69937;SDS011;57248;47.320;15.998;2024-01-06T07:10:50;2.80;;;0.80;;
69937;SDS011;57248;47.320;15.998;2024-01-06T07:13:22;4.72;;;0.70;;
69937;SDS011;57248;47.320;15.998;2024-01-06T07:15:47;3.63;;;1.23;;
69937;SDS011;57248;47.320;15.998;2024-01-06T07:18:19;3.45;;;0.73;;
69937;SDS011;57248;47.320;15.998;2024-01-06T07:20:55;1.92;;;0.82;;
69937;SDS011;57248;47.320;15.998;2024-01-06T07:23:27;3.15;;;1.05;;
69937;SDS011;57248;47.320;15.998;2024-01-06T07:26:00;3.70;;;1.05;;
69937;SDS011;57248;47.320;15.998;2024-01-06T07:28:26;2.47;;;0.70;;
69937;SDS011;57248;47.320;15.998;2024-01-06T07:30:58;3.33;;;0.90;;
69937;SDS011;57248;47.320;15.998;2024-01-06T07:33:25;5.25;;;0.80;;
69937;SDS011;57248;47.320;15.998;2024-01-06T07:35:57;7.35;;;1.25;;
69937;SDS011;57248;47.320;15.998;2024-01-06T07:38:29;5.18;;;0.98;;
69937;SDS011;57248;47.320;15.998;2024-01-06T07:40:56;7.77;;;1.83;;
69937;SDS011;57248;47.320;15.998;2024-01-06T07:43:28;5.80;;;2.38;;
69937;SDS011;57248;47.320;15.998;2024-01-06T07:46:00;3.72;;;0.98;;
69937;SDS011;57248;47.320;15.998;2024-01-06T07:48:32;2.88;;;0.85;;
69937;SDS011;57248;47.320;15.998;2024-01-06T07:51:05;3.03;;;0.60;;
69937;SDS011;57248;47.320;15.998;2024-01-06T07:53:30;1.63;;;0.30;;
69937;SDS011;57248;47.320;15.998;2024-01-06T07:56:02;3.60;;;1.20;;
69937;SDS011;57248;47.320;15.998;2024-01-06T07:58:35;3.07;;;0.60;;
69937;SDS011;57248;47.320;15.998;2024-01-06T08:01:15;2.35;;;0.80;;
69937;SDS011;57248;47.320;15.998;2024-01-06T08:03:47;4.50;;;0.90;;
69937;SDS011;57248;47.320;15.998;2024-01-06T08:06:19;3.40;;;1.33;;
69937;SDS011;57248;47.320;15.998;2024-01-06T08:08:52;3.58;;;0.85;;
69937;SDS011;57248;47.320;15.998;2024-01-06T08:11:24;5.10;;;0.80;;
69937;SDS011;57248;47.320;15.998;2024-01-06T08:13:56;3.78;;;0.98;;
69937;SDS011;57248;47.320;15.998;2024-01-06T08:16:28;7.03;;;1.17;;
69937;SDS011;57248;47.320;15.998;2024-01-06T08:19:00;6.73;;;1.03;;
69937;SDS011;57248;47.320;15.998;2024-01-06T08:21:33;4.90;;;1.25;;
69937;SDS011;57248;47.320;15.998;2024-01-06T08:24:06;4.93;;;0.82;;
69937;SDS011;57248;47.320;15.998;2024-01-06T08:26:32;2.77;;;0.93;;
69937;SDS011;57248;47.320;15.998;2024-01-06T08:29:06;3.80;;;0.82;;
69937;SDS011;57248;47.320;15.998;2024-01-06T08:31:38;4.65;;;1.58;;
69937;SDS011;57248;47.320;15.998;2024-01-06T08:34:10;5.72;;;0.77;;
69937;SDS011;57248;47.320;15.998;2024-01-06T08:36:42;3.93;;;1.10;;
69937;SDS011;57248;47.320;15.998;2024-01-06T08:39:15;4.65;;;1.25;;
69937;SDS011;57248;47.320;15.998;2024-01-06T08:41:47;3.00;;;1.15;;
69937;SDS011;57248;47.320;15.998;2024-01-06T08:44:20;2.90;;;0.85;;
69937;SDS011;57248;47.320;15.998;2024-01-06T08:46:53;2.08;;;0.90;;
69937;SDS011;57248;47.320;15.998;2024-01-06T08:49:25;4.13;;;1.83;;
69937;SDS011;57248;47.320;15.998;2024-01-06T08:51:51;5.10;;;1.80;;
69937;SDS011;57248;47.320;15.998;2024-01-06T08:54:23;6.35;;;1.35;;
69937;SDS011;57248;47.320;15.998;2024-01-06T08:56:55;3.87;;;1.03;;
69937;SDS011;57248;47.320;15.998;2024-01-06T08:59:41;4.18;;;1.40;;
69937;SDS011;57248;47.320;15.998;2024-01-06T09:02:13;4.63;;;1.45;;
69937;SDS011;57248;47.320;15.998;2024-01-06T09:04:45;3.83;;;1.52;;
69937;SDS011;57248;47.320;15.998;2024-01-06T09:07:17;6.22;;;1.73;;
69937;SDS011;57248;47.320;15.998;2024-01-06T09:09:49;4.57;;;1.30;;
69937;SDS011;57248;47.320;15.998;2024-01-06T09:12:23;5.70;;;1.92;;
69937;SDS011;57248;47.320;15.998;2024-01-06T09:14:55;4.63;;;1.50;;
69937;SDS011;57248;47.320;15.998;2024-01-06T09:17:27;5.32;;;1.95;;
69937;SDS011;57248;47.320;15.998;2024-01-06T09:19:59;4.97;;;1.98;;
69937;SDS011;57248;47.320;15.998;2024-01-06T09:22:33;5.63;;;2.30;;
69937;SDS011;57248;47.320;15.998;2024-01-06T09:24:59;7.18;;;2.75;;
69937;SDS011;57248;47.320;15.998;2024-01-06T09:27:31;5.75;;;2.22;;
69937;SDS011;57248;47.320;15.998;2024-01-06T09:30:04;5.10;;;1.77;;
69937;SDS011;57248;47.320;15.998;2024-01-06T09:32:32;7.43;;;2.45;;
69937;SDS011;57248;47.320;15.998;2024-01-06T09:35:04;4.60;;;2.13;;
69937;SDS011;57248;47.320;15.998;2024-01-06T09:37:36;3.97;;;1.63;;
69937;SDS011;57248;47.320;15.998;2024-01-06T09:40:10;4.20;;;1.52;;
69937;SDS011;57248;47.320;15.998;2024-01-06T09:42:47;7.87;;;2.80;;
69937;SDS011;57248;47.320;15.998;2024-01-06T09:45:20;4.28;;;1.38;;
69937;SDS011;57248;47.320;15.998;2024-01-06T09:47:54;5.07;;;1.73;;
69937;SDS011;57248;47.320;15.998;2024-01-06T09:50:27;8.20;;;2.40;;
69937;SDS011;57248;47.320;15.998;2024-01-06T09:53:02;6.32;;;2.65;;
69937;SDS011;57248;47.320;15.998;2024-01-06T09:55:37;10.53;;;3.07;;
69937;SDS011;57248;47.320;15.998;2024-01-06T09:58:10;8.80;;;2.67;;
69937;SDS011;57248;47.320;15.998;2024-01-06T10:00:52;7.70;;;2.30;;
69937;SDS011;57248;47.320;15.998;2024-01-06T10:03:24;9.90;;;2.67;;
69937;SDS011;57248;47.320;15.998;2024-01-06T10:05:57;6.88;;;2.17;;
69937;SDS011;57248;47.320;15.998;2024-01-06T10:08:32;10.40;;;2.83;;
69937;SDS011;57248;47.320;15.998;2024-01-06T10:10:59;9.13;;;3.10;;
69937;SDS011;57248;47.320;15.998;2024-01-06T10:13:31;10.10;;;4.20;;
69937;SDS011;57248;47.320;15.998;2024-01-06T10:16:04;10.80;;;4.95;;
69937;SDS011;57248;47.320;15.998;2024-01-06T10:18:37;11.32;;;4.45;;
69937;SDS011;57248;47.320;15.998;2024-01-06T10:21:10;9.97;;;3.97;;
69937;SDS011;57248;47.320;15.998;2024-01-06T10:23:45;9.02;;;3.65;;
69937;SDS011;57248;47.320;15.998;2024-01-06T10:26:17;9.75;;;3.65;;
69937;SDS011;57248;47.320;15.998;2024-01-06T10:28:49;7.38;;;3.17;;
69937;SDS011;57248;47.320;15.998;2024-01-06T10:31:22;7.93;;;2.80;;
69937;SDS011;57248;47.320;15.998;2024-01-06T10:33:57;9.80;;;3.20;;
69937;SDS011;57248;47.320;15.998;2024-01-06T10:36:29;6.30;;;2.60;;
69937;SDS011;57248;47.320;15.998;2024-01-06T10:39:03;8.38;;;2.58;;
69937;SDS011;57248;47.320;15.998;2024-01-06T10:41:37;7.75;;;2.25;;
69937;SDS011;57248;47.320;15.998;2024-01-06T10:44:10;9.52;;;3.83;;
69937;SDS011;57248;47.320;15.998;2024-01-06T10:46:45;6.80;;;2.17;;
69937;SDS011;57248;47.320;15.998;2024-01-06T10:49:19;3.65;;;1.48;;
69937;SDS011;57248;47.320;15.998;2024-01-06T10:51:53;5.30;;;1.52;;
69937;SDS011;57248;47.320;15.998;2024-01-06T10:54:27;1.52;;;0.40;;
69937;SDS011;57248;47.320;15.998;2024-01-06T10:57:07;2.33;;;0.68;;
69937;SDS011;57248;47.320;15.998;2024-01-06T10:59:39;1.97;;;0.50;;
69937;SDS011;57248;47.320;15.998;2024-01-06T11:02:06;1.50;;;0.38;;
69937;SDS011;57248;47.320;15.998;2024-01-06T11:04:39;1.88;;;0.50;;
69937;SDS011;57248;47.320;15.998;2024-01-06T11:07:13;2.53;;;0.90;;
69937;SDS011;57248;47.320;15.998;2024-01-06T11:09:50;1.92;;;0.73;;
69937;SDS011;57248;47.320;15.998;2024-01-06T11:12:18;1.67;;;0.40;;
69937;SDS011;57248;47.320;15.998;2024-01-06T11:14:50;2.13;;;0.32;;
69937;SDS011;57248;47.320;15.998;2024-01-06T11:20:28;1.98;;;0.50;;
69937;SDS011;57248;47.320;15.998;2024-01-06T11:23:19;3.22;;;0.40;;
69937;SDS011;57248;47.320;15.998;2024-01-06T11:25:55;2.40;;;0.30;;
69937;SDS011;57248;47.320;15.998;2024-01-06T11:28:29;3.28;;;0.32;;
69937;SDS011;57248;47.320;15.998;2024-01-06T11:31:08;1.98;;;0.30;;
69937;SDS011;57248;47.320;15.998;2024-01-06T11:33:43;2.00;;;0.55;;
69937;SDS011;57248;47.320;15.998;2024-01-06T11:36:18;2.67;;;1.00;;
69937;SDS011;57248;47.320;15.998;2024-01-06T11:38:51;2.30;;;0.57;;
69937;SDS011;57248;47.320;15.998;2024-01-06T11:41:48;1.75;;;0.30;;
69937;SDS011;57248;47.320;15.998;2024-01-06T11:44:21;1.83;;;0.30;;
69937;SDS011;57248;47.320;15.998;2024-01-06T11:46:56;2.60;;;0.43;;
69937;SDS011;57248;47.320;15.998;2024-01-06T11:49:29;0.82;;;0.03;;
69937;SDS011;57248;47.320;15.998;2024-01-06T11:51:58;1.40;;;0.57;;
69937;SDS011;57248;47.320;15.998;2024-01-06T11:54:30;2.65;;;0.30;;
69937;SDS011;57248;47.320;15.998;2024-01-06T11:57:04;1.77;;;0.73;;
69937;SDS011;57248;47.320;15.998;2024-01-06T11:59:36;1.40;;;0.30;;
69937;SDS011;57248;47.320;15.998;2024-01-06T12:02:17;1.83;;;0.20;;
69937;SDS011;57248;47.320;15.998;2024-01-06T12:04:53;1.85;;;0.30;;
69937;SDS011;57248;47.320;15.998;2024-01-06T12:07:25;1.52;;;0.25;;
69937;SDS011;57248;47.320;15.998;2024-01-06T12:10:02;0.98;;;0.20;;
69937;SDS011;57248;47.320;15.998;2024-01-06T12:12:35;1.35;;;0.22;;
69937;SDS011;57248;47.320;15.998;2024-01-06T12:15:08;1.87;;;0.37;;
69937;SDS011;57248;47.320;15.998;2024-01-06T12:17:41;3.70;;;0.38;;
69937;SDS011;57248;47.320;15.998;2024-01-06T12:20:15;2.22;;;0.65;;
69937;SDS011;57248;47.320;15.998;2024-01-06T12:22:50;2.63;;;0.40;;
69937;SDS011;57248;47.320;15.998;2024-01-06T12:25:24;0.93;;;0.20;;
69937;SDS011;57248;47.320;15.998;2024-01-06T12:27:51;1.13;;;0.13;;
69937;SDS011;57248;47.320;15.998;2024-01-06T12:30:25;2.65;;;0.20;;
69937;SDS011;57248;47.320;15.998;2024-01-06T12:32:59;1.58;;;0.65;;
69937;SDS011;57248;47.320;15.998;2024-01-06T12:35:34;2.45;;;0.75;;
69937;SDS011;57248;47.320;15.998;2024-01-06T12:38:08;2.05;;;0.47;;
69937;SDS011;57248;47.320;15.998;2024-01-06T12:40:40;0.93;;;0.20;;
69937;SDS011;57248;47.320;15.998;2024-01-06T12:43:15;2.53;;;0.32;;
69937;SDS011;57248;47.320;15.998;2024-01-06T12:45:48;2.35;;;0.22;;
69937;SDS011;57248;47.320;15.998;2024-01-06T12:48:25;2.55;;;0.60;;
69937;SDS011;57248;47.320;15.998;2024-01-06T12:50:51;2.83;;;0.73;;
69937;SDS011;57248;47.320;15.998;2024-01-06T12:53:23;1.83;;;0.55;;
69937;SDS011;57248;47.320;15.998;2024-01-06T12:55:56;1.73;;;0.55;;
69937;SDS011;57248;47.320;15.998;2024-01-06T12:58:36;0.80;;;0.22;;
69937;SDS011;57248;47.320;15.998;2024-01-06T13:01:09;0.80;;;0.10;;
69937;SDS011;57248;47.320;15.998;2024-01-06T13:03:42;1.00;;;0.20;;
69937;SDS011;57248;47.320;15.998;2024-01-06T13:06:18;0.98;;;0.10;;
69937;SDS011;57248;47.320;15.998;2024-01-06T13:08:50;0.95;;;0.10;;
69937;SDS011;57248;47.320;15.998;2024-01-06T13:11:22;0.80;;;0.13;;
69937;SDS011;57248;47.320;15.998;2024-01-06T13:13:56;2.03;;;0.37;;
69937;SDS011;57248;47.320;15.998;2024-01-06T13:16:29;2.33;;;0.40;;
69937;SDS011;57248;47.320;15.998;2024-01-06T13:19:01;1.20;;;0.10;;
69937;SDS011;57248;47.320;15.998;2024-01-06T13:21:34;2.28;;;0.55;;
69937;SDS011;57248;47.320;15.998;2024-01-06T13:24:06;1.35;;;0.20;;
69937;SDS011;57248;47.320;15.998;2024-01-06T13:26:39;1.00;;;0.23;;
69937;SDS011;57248;47.320;15.998;2024-01-06T13:29:11;1.65;;;0.13;;
69937;SDS011;57248;47.320;15.998;2024-01-06T13:31:45;1.20;;;0.22;;
69937;SDS011;57248;47.320;15.998;2024-01-06T13:34:10;1.50;;;0.28;;
69937;SDS011;57248;47.320;15.998;2024-01-06T13:36:42;2.47;;;0.40;;
69937;SDS011;57248;47.320;15.998;2024-01-06T13:39:14;2.23;;;0.23;;
69937;SDS011;57248;47.320;15.998;2024-01-06T13:41:54;0.95;;;0.30;;
69937;SDS011;57248;47.320;15.998;2024-01-06T13:44:20;1.27;;;0.13;;
69937;SDS011;57248;47.320;15.998;2024-01-06T13:46:56;0.70;;;0.10;;
69937;SDS011;57248;47.320;15.998;2024-01-06T13:49:30;0.77;;;0.10;;
69937;SDS011;57248;47.320;15.998;2024-01-06T13:51:56;1.33;;;0.37;;
69937;SDS011;57248;47.320;15.998;2024-01-06T13:54:29;2.50;;;0.20;;
69937;SDS011;57248;47.320;15.998;2024-01-06T13:57:01;1.27;;;0.20;;
69937;SDS011;57248;47.320;15.998;2024-01-06T13:59:48;0.57;;;0.08;;
69937;SDS011;57248;47.320;15.998;2024-01-06T14:02:20;1.30;;;0.38;;
69937;SDS011;57248;47.320;15.998;2024-01-06T14:04:52;2.63;;;0.50;;
69937;SDS011;57248;47.320;15.998;2024-01-06T14:07:25;2.13;;;0.35;;
69937;SDS011;57248;47.320;15.998;2024-01-06T14:09:57;1.27;;;0.25;;
69937;SDS011;57248;47.320;15.998;2024-01-06T14:12:30;1.70;;;0.20;;
69937;SDS011;57248;47.320;15.998;2024-01-06T14:15:04;1.13;;;0.10;;
69937;SDS011;57248;47.320;15.998;2024-01-06T14:17:31;0.30;;;0.05;;
69937;SDS011;57248;47.320;15.998;2024-01-06T14:20:07;5.03;;;0.50;;
69937;SDS011;57248;47.320;15.998;2024-01-06T14:22:41;1.20;;;0.23;;
69937;SDS011;57248;47.320;15.998;2024-01-06T14:25:14;0.52;;;0.10;;
69937;SDS011;57248;47.320;15.998;2024-01-06T14:27:50;0.80;;;0.20;;
69937;SDS011;57248;47.320;15.998;2024-01-06T14:30:16;1.30;;;0.40;;
69937;SDS011;57248;47.320;15.998;2024-01-06T14:32:48;1.55;;;0.40;;
69937;SDS011;57248;47.320;15.998;2024-01-06T14:35:22;1.00;;;0.10;;
69937;SDS011;57248;47.320;15.998;2024-01-06T14:37:54;1.55;;;0.30;;
69937;SDS011;57248;47.320;15.998;2024-01-06T14:40:27;1.43;;;0.10;;
69937;SDS011;57248;47.320;15.998;2024-01-06T14:43:01;0.90;;;0.20;;
69937;SDS011;57248;47.320;15.998;2024-01-06T14:45:33;2.63;;;0.73;;
69937;SDS011;57248;47.320;15.998;2024-01-06T14:48:01;1.20;;;0.00;;
69937;SDS011;57248;47.320;15.998;2024-01-06T14:50:33;0.75;;;0.10;;
69937;SDS011;57248;47.320;15.998;2024-01-06T14:53:05;2.60;;;0.37;;
69937;SDS011;57248;47.320;15.998;2024-01-06T14:55:38;1.13;;;0.05;;
69937;SDS011;57248;47.320;15.998;2024-01-06T14:58:25;2.30;;;0.25;;
69937;SDS011;57248;47.320;15.998;2024-01-06T15:01:05;0.75;;;0.20;;
69937;SDS011;57248;47.320;15.998;2024-01-06T15:03:37;1.27;;;0.10;;
69937;SDS011;57248;47.320;15.998;2024-01-06T15:06:11;0.50;;;0.10;;